This is the latest recevied weather packets stored in our database for station/object KQ4UWH. If no packets are shown the sender has not sent any weather packets the latest 10 day(s).
| Time | Temp. | Humidity | Pressure | Rain* | Wind** | Luminosity | Snow |
|---|---|---|---|---|---|---|---|
| 1777225421 | 23.89° C | 67% | 1239.7 hPa | 0 mm | - | 741 W/m² | - |
| 1777225119 | 23.89° C | 71% | 1239.7 hPa | 0 mm | - | 778 W/m² | - |
| 1777224815 | 24.44° C | 69% | 1239.7 hPa | 0 mm | - | 811 W/m² | - |
| 1777224511 | 24.44° C | 70% | 1239.7 hPa | 0 mm | - | 774 W/m² | - |
| 1777224207 | 23.89° C | 69% | 1239.7 hPa | 0 mm | - | 605 W/m² | - |
| 1777223904 | 23.89° C | 69% | 1239.7 hPa | 0 mm | - | 827 W/m² | - |
| 1777223601 | 23.33° C | 70% | 1239.7 hPa | 0 mm | - | 776 W/m² | - |
| 1777223297 | 22.78° C | 71% | 1239.7 hPa | 0 mm | - | 784 W/m² | - |
| 1777222995 | 22.22° C | 72% | 1239.7 hPa | 0 mm | - | 734 W/m² | - |
| 1777222692 | 21.67° C | 76% | 1239.7 hPa | 0 mm | - | 441 W/m² | - |
| 1777222389 | 21.67° C | 78% | 1239.7 hPa | 0 mm | - | 475 W/m² | - |
| 1777222087 | 21.67° C | 79% | 1239.7 hPa | 0 mm | - | 201 W/m² | - |
| 1777221783 | 22.22° C | 74% | 1239.7 hPa | 0 mm | - | 234 W/m² | - |
| 1777221480 | 21.11° C | 77% | 1239.7 hPa | 0 mm | - | 888 W/m² | - |
| 1777221177 | 21.11° C | 78% | 1239.7 hPa | 0 mm | - | 332 W/m² | - |
| 1777220873 | 20.56° C | 81% | 1239.7 hPa | 0 mm | - | 275 W/m² | - |
| 1777220569 | 20.56° C | 82% | 1239.7 hPa | 0 mm | - | 226 W/m² | - |
| 1777220264 | 20.56° C | 81% | 1239.7 hPa | 0 mm | - | 203 W/m² | - |
| 1777219960 | 21.67° C | 78% | 1239.7 hPa | 0 mm | - | 192 W/m² | - |
| 1777219657 | 21.67° C | 79% | 1239.7 hPa | 0 mm | - | 313 W/m² | - |
| 1777219354 | 20.56° C | 80% | 1239.7 hPa | 0 mm | - | 889 W/m² | - |
| 1777219050 | 20° C | 84% | 1239.7 hPa | 0 mm | - | 719 W/m² | - |
| 1777218746 | 19.44° C | 86% | 1239.7 hPa | 0 mm | - | 130 W/m² | - |
| 1777218441 | 20° C | 86% | 1239.7 hPa | 0 mm | - | 172 W/m² | - |
| 1777218138 | 20° C | 85% | 1239.7 hPa | 0 mm | - | 147 W/m² | - |
* Rain latest hour (hover to see other rain measurements)
** Current wind speed in m/s (hover to see current wind gust speed)